Time;durP1;ratioP1;P1;durP2;ratioP2;P2;SDS_P1;SDS_P2;PMS_P1;PMS_P2;Temp;Humidity;BMP_temperature;BMP_pressure;BME280_temperature;BME280_humidity;BME280_pressure;Samples;Min_cycle;Max_cycle;Signal;HPM_P1;HPM_P2
2023/08/07 00:00:09;;;;;;;;;;;20.10;88.50;;;;;;5096791;28;19969;-72
2023/08/07 00:02:35;;;;;;;;;;;20.10;88.40;;;;;;5096756;28;19951;-72
2023/08/07 00:05:00;;;;;;;;;;;20.10;88.40;;;;;;5095559;28;19959;-71
2023/08/07 00:07:26;;;;;;;;;;;20.10;88.40;;;;;;5096638;28;19912;-72
2023/08/07 00:09:51;;;;;;;;;;;20.10;88.40;;;;;;5096556;28;20366;-72
2023/08/07 00:12:17;;;;;;;;;;;20.10;88.40;;;;;;5095285;28;19953;-72
2023/08/07 00:14:42;;;;;;;;;;;20.10;88.50;;;;;;5096424;28;20239;-72
2023/08/07 00:17:08;;;;;;;;;;;20.10;88.40;;;;;;5096152;28;19919;-72
2023/08/07 00:19:33;;;;;;;;;;;20.10;88.40;;;;;;5096395;28;20376;-71
2023/08/07 00:21:59;;;;;;;;;;;20.10;88.40;;;;;;5096324;28;19915;-71
2023/08/07 00:24:24;;;;;;;;;;;20.10;88.40;;;;;;5096109;28;19908;-72
2023/08/07 00:26:50;;;;;;;;;;;20.10;88.40;;;;;;5096254;28;20006;-72
2023/08/07 00:29:15;;;;;;;;;;;20.10;88.40;;;;;;5096163;28;19912;-72
2023/08/07 00:31:41;;;;;;;;;;;20.10;88.40;;;;;;5096150;28;19978;-72
2023/08/07 00:34:06;;;;;;;;;;;20.10;88.40;;;;;;5096038;28;20055;-71
2023/08/07 00:36:34;;;;;;;;;;;20.10;88.40;;;;;;5095575;28;20267;-72
2023/08/07 00:39:00;;;;;;;;;;;20.10;88.30;;;;;;5095460;28;20017;-71
2023/08/07 00:41:26;;;;;;;;;;;20.10;88.40;;;;;;5096032;28;19916;-72
2023/08/07 00:43:51;;;;;;;;;;;20.10;88.40;;;;;;5095830;28;20365;-72
2023/08/07 00:46:17;;;;;;;;;;;20.10;88.30;;;;;;5095551;28;19924;-72
2023/08/07 00:48:43;;;;;;;;;;;20.10;88.40;;;;;;5095834;28;19908;-72
2023/08/07 00:51:08;;;;;;;;;;;20.10;88.30;;;;;;5095452;28;19915;-71
2023/08/07 00:53:37;;;;;;;;;;;20.00;88.20;;;;;;5095746;28;20354;-71
2023/08/07 00:56:02;;;;;;;;;;;20.00;88.30;;;;;;5095697;28;19912;-72
2023/08/07 00:58:28;;;;;;;;;;;20.00;88.30;;;;;;5095648;28;19999;-70
2023/08/07 01:00:53;;;;;;;;;;;20.00;88.20;;;;;;5095722;28;19957;-72
2023/08/07 01:03:19;;;;;;;;;;;20.00;88.30;;;;;;5095552;28;20397;-72
2023/08/07 01:05:44;;;;;;;;;;;20.10;88.30;;;;;;5095267;28;19915;-72
2023/08/07 01:08:10;;;;;;;;;;;20.00;88.20;;;;;;5095202;28;19952;-72
2023/08/07 01:10:36;;;;;;;;;;;20.00;88.30;;;;;;5095149;28;19908;-71
2023/08/07 01:13:12;;;;;;;;;;;20.00;88.20;;;;;;5095066;28;19923;-71
2023/08/07 01:15:38;;;;;;;;;;;20.00;88.20;;;;;;5094136;28;19919;-72
2023/08/07 01:18:07;;;;;;;;;;;20.00;88.20;;;;;;5095302;28;19912;-72
2023/08/07 01:20:32;;;;;;;;;;;20.00;88.20;;;;;;5094034;28;19935;-72
2023/08/07 01:22:58;;;;;;;;;;;20.00;88.10;;;;;;5094936;28;19958;-72
2023/08/07 01:25:23;;;;;;;;;;;20.10;88.20;;;;;;5094876;28;19950;-72
2023/08/07 01:28:05;;;;;;;;;;;20.00;88.10;;;;;;5095050;28;19908;-72
2023/08/07 01:30:35;;;;;;;;;;;20.00;88.20;;;;;;5095476;28;19912;-71
2023/08/07 01:33:06;;;;;;;;;;;20.00;88.10;;;;;;5095017;28;19912;-72
2023/08/07 01:35:37;;;;;;;;;;;20.00;88.10;;;;;;5094640;28;20359;-71
2023/08/07 01:38:03;;;;;;;;;;;20.00;88.10;;;;;;5094703;28;19908;-71
2023/08/07 01:40:29;;;;;;;;;;;20.00;88.10;;;;;;5094833;28;19908;-73
2023/08/07 01:42:54;;;;;;;;;;;20.00;88.10;;;;;;5094577;28;20370;-72
2023/08/07 01:45:24;;;;;;;;;;;20.00;88.10;;;;;;5094694;28;19920;-72
2023/08/07 01:47:49;;;;;;;;;;;20.00;88.10;;;;;;5094331;28;19916;-71
2023/08/07 01:50:15;;;;;;;;;;;20.00;88.10;;;;;;5094525;28;19908;-71
2023/08/07 01:52:40;;;;;;;;;;;20.00;88.10;;;;;;5094724;28;19912;-71
2023/08/07 01:55:06;;;;;;;;;;;20.00;88.10;;;;;;5094280;28;19916;-72
2023/08/07 01:57:31;;;;;;;;;;;20.00;88.10;;;;;;5094536;28;19908;-71
2023/08/07 01:59:57;;;;;;;;;;;20.00;88.10;;;;;;5094555;28;19957;-72
2023/08/07 02:02:23;;;;;;;;;;;20.00;88.10;;;;;;5094605;28;19955;-72
2023/08/07 02:04:48;;;;;;;;;;;20.00;88.00;;;;;;5094504;28;19915;-73
2023/08/07 02:07:14;;;;;;;;;;;20.00;88.00;;;;;;5094166;28;19908;-72
2023/08/07 02:09:39;;;;;;;;;;;20.00;88.10;;;;;;5094486;28;19969;-72
2023/08/07 02:12:05;;;;;;;;;;;20.00;88.00;;;;;;5094404;28;20003;-71
2023/08/07 02:14:31;;;;;;;;;;;20.00;88.00;;;;;;5094010;28;20011;-71
2023/08/07 02:16:56;;;;;;;;;;;20.00;88.10;;;;;;5094279;28;19993;-72
2023/08/07 02:19:22;;;;;;;;;;;20.00;88.10;;;;;;5094060;28;20349;-72
2023/08/07 02:21:47;;;;;;;;;;;20.00;88.10;;;;;;5094284;28;19908;-72
2023/08/07 02:24:13;;;;;;;;;;;20.00;88.00;;;;;;5094002;28;19914;-72
2023/08/07 02:26:39;;;;;;;;;;;20.00;88.00;;;;;;5094218;28;20267;-72
2023/08/07 02:29:06;;;;;;;;;;;20.00;88.00;;;;;;5093955;28;19908;-72
2023/08/07 02:31:31;;;;;;;;;;;20.00;88.00;;;;;;5094187;28;19995;-72
2023/08/07 02:33:57;;;;;;;;;;;20.00;88.00;;;;;;5093797;28;20023;-72
2023/08/07 02:36:22;;;;;;;;;;;20.00;88.10;;;;;;5094175;28;19938;-72
2023/08/07 02:38:48;;;;;;;;;;;20.00;88.10;;;;;;5093845;28;19977;-72
2023/08/07 02:41:13;;;;;;;;;;;20.00;88.10;;;;;;5094188;28;19915;-72
2023/08/07 02:43:39;;;;;;;;;;;20.00;88.10;;;;;;5094252;28;20366;-72
2023/08/07 02:46:04;;;;;;;;;;;20.00;88.10;;;;;;5094361;28;19920;-71
2023/08/07 02:48:30;;;;;;;;;;;20.00;88.00;;;;;;5093782;28;19957;-69
2023/08/07 02:50:55;;;;;;;;;;;20.00;88.00;;;;;;5094139;28;19942;-72
2023/08/07 02:53:21;;;;;;;;;;;19.90;88.00;;;;;;5093931;28;19916;-72
2023/08/07 02:55:46;;;;;;;;;;;19.90;88.00;;;;;;5093988;28;19957;-72
2023/08/07 02:58:12;;;;;;;;;;;19.90;88.00;;;;;;5093953;28;19958;-72
2023/08/07 03:00:37;;;;;;;;;;;19.90;88.00;;;;;;5095111;28;19930;-72
2023/08/07 03:03:02;;;;;;;;;;;20.00;88.00;;;;;;5096624;28;19973;-71
2023/08/07 03:05:29;;;;;;;;;;;19.90;88.00;;;;;;5097667;28;19908;-72
2023/08/07 03:07:54;;;;;;;;;;;19.90;88.00;;;;;;5097816;28;20289;-72
2023/08/07 03:10:20;;;;;;;;;;;19.90;88.00;;;;;;5097509;28;19909;-73
2023/08/07 03:12:46;;;;;;;;;;;19.90;88.10;;;;;;5097734;28;19915;-73
2023/08/07 03:15:11;;;;;;;;;;;19.90;88.00;;;;;;5097683;28;19916;-72
2023/08/07 03:17:37;;;;;;;;;;;19.90;88.00;;;;;;5097963;28;19915;-72
2023/08/07 03:20:03;;;;;;;;;;;19.90;88.00;;;;;;5097278;28;19969;-72
2023/08/07 03:22:29;;;;;;;;;;;19.90;88.10;;;;;;5097436;28;19916;-72
2023/08/07 03:24:55;;;;;;;;;;;19.90;88.10;;;;;;5097486;28;20336;-72
2023/08/07 03:27:20;;;;;;;;;;;19.90;88.00;;;;;;5097356;28;20375;-72
2023/08/07 03:29:46;;;;;;;;;;;19.90;88.00;;;;;;5097429;28;20358;-73
2023/08/07 03:32:11;;;;;;;;;;;19.90;88.00;;;;;;5097026;28;20377;-72
2023/08/07 03:34:36;;;;;;;;;;;19.90;88.10;;;;;;5096851;28;20002;-72
2023/08/07 03:37:02;;;;;;;;;;;19.90;88.10;;;;;;5097250;28;19912;-72
2023/08/07 03:39:28;;;;;;;;;;;19.90;88.00;;;;;;5097267;28;19915;-72
2023/08/07 03:41:53;;;;;;;;;;;19.90;88.00;;;;;;5097111;28;19908;-73
2023/08/07 03:44:18;;;;;;;;;;;19.90;88.10;;;;;;5097035;28;19954;-72
2023/08/07 03:46:44;;;;;;;;;;;19.90;88.10;;;;;;5097118;28;19915;-72
2023/08/07 03:49:09;;;;;;;;;;;19.80;88.10;;;;;;5097030;28;19908;-72
2023/08/07 03:51:35;;;;;;;;;;;19.80;88.00;;;;;;5096922;28;19959;-72
2023/08/07 03:54:00;;;;;;;;;;;19.80;88.00;;;;;;5096539;28;19969;-73
2023/08/07 03:56:26;;;;;;;;;;;19.80;88.00;;;;;;5096871;28;19959;-72
2023/08/07 03:58:51;;;;;;;;;;;19.80;88.00;;;;;;5096828;28;19908;-72
2023/08/07 04:01:17;;;;;;;;;;;19.80;88.00;;;;;;5096788;28;20011;-72
2023/08/07 04:03:42;;;;;;;;;;;19.80;88.00;;;;;;5096408;28;20355;-72
2023/08/07 04:06:08;;;;;;;;;;;19.80;88.00;;;;;;5096414;28;19908;-72
2023/08/07 04:08:33;;;;;;;;;;;19.80;88.00;;;;;;5096455;28;19908;-72
2023/08/07 04:10:59;;;;;;;;;;;19.80;88.10;;;;;;5096190;28;19908;-72
2023/08/07 04:13:25;;;;;;;;;;;19.80;88.10;;;;;;5095047;28;19912;-72
2023/08/07 04:15:50;;;;;;;;;;;19.80;88.10;;;;;;5096049;28;20416;-72
2023/08/07 04:18:16;;;;;;;;;;;19.80;88.10;;;;;;5096019;28;19908;-72
2023/08/07 04:20:42;;;;;;;;;;;19.80;88.10;;;;;;5096259;28;19915;-72
2023/08/07 04:23:08;;;;;;;;;;;19.80;88.10;;;;;;5096591;28;19912;-72
2023/08/07 04:25:34;;;;;;;;;;;19.80;88.10;;;;;;5095976;28;20359;-72
2023/08/07 04:27:59;;;;;;;;;;;19.80;88.10;;;;;;5096078;28;19908;-72
2023/08/07 04:30:25;;;;;;;;;;;19.80;88.60;;;;;;5096257;28;19909;-72
2023/08/07 04:32:50;;;;;;;;;;;19.80;88.10;;;;;;5096047;28;19912;-72
2023/08/07 04:35:16;;;;;;;;;;;19.80;88.00;;;;;;5095829;28;19916;-72
2023/08/07 04:37:41;;;;;;;;;;;19.80;88.10;;;;;;5095752;28;20362;-72
2023/08/07 04:40:08;;;;;;;;;;;19.80;88.00;;;;;;5095927;28;20006;-72
2023/08/07 04:42:34;;;;;;;;;;;19.80;88.10;;;;;;5095681;28;19908;-71
2023/08/07 04:44:59;;;;;;;;;;;19.80;88.10;;;;;;5095839;28;19973;-72
2023/08/07 04:47:24;;;;;;;;;;;19.80;88.00;;;;;;5095503;28;19915;-72
2023/08/07 04:49:50;;;;;;;;;;;19.80;88.10;;;;;;5095696;28;20010;-72
2023/08/07 04:52:15;;;;;;;;;;;19.80;88.00;;;;;;5096150;28;19908;-72
2023/08/07 04:54:41;;;;;;;;;;;19.80;88.10;;;;;;5095282;28;19916;-72
2023/08/07 04:57:06;;;;;;;;;;;19.70;88.00;;;;;;5095573;28;19916;-72
2023/08/07 04:59:32;;;;;;;;;;;19.70;88.10;;;;;;5095348;28;19995;-72
2023/08/07 05:01:57;;;;;;;;;;;19.70;88.00;;;;;;5095352;28;20358;-72
2023/08/07 05:04:23;;;;;;;;;;;19.70;88.00;;;;;;5095404;28;20001;-72
2023/08/07 05:06:48;;;;;;;;;;;19.70;88.10;;;;;;5094995;28;19958;-72
2023/08/07 05:09:14;;;;;;;;;;;19.70;88.10;;;;;;5095403;28;20354;-72
2023/08/07 05:11:39;;;;;;;;;;;19.80;88.10;;;;;;5095058;28;19915;-72
2023/08/07 05:14:05;;;;;;;;;;;19.70;88.00;;;;;;5094905;28;19912;-72
2023/08/07 05:16:30;;;;;;;;;;;19.80;88.20;;;;;;5094820;28;20499;-72
2023/08/07 05:18:56;;;;;;;;;;;19.70;88.10;;;;;;5094817;28;19908;-72
2023/08/07 05:21:21;;;;;;;;;;;19.70;88.00;;;;;;5095197;28;19908;-72
2023/08/07 05:23:47;;;;;;;;;;;19.70;88.10;;;;;;5094735;28;20418;-72
2023/08/07 05:26:13;;;;;;;;;;;19.70;88.10;;;;;;5094507;28;20003;-72
2023/08/07 05:28:38;;;;;;;;;;;19.70;88.10;;;;;;5094898;28;19955;-72
2023/08/07 05:31:03;;;;;;;;;;;19.70;88.10;;;;;;5094970;28;19912;-70
2023/08/07 05:33:29;;;;;;;;;;;19.70;88.20;;;;;;5094346;28;19912;-72
2023/08/07 05:35:55;;;;;;;;;;;19.70;88.20;;;;;;5094288;28;20386;-72
2023/08/07 05:38:20;;;;;;;;;;;19.70;88.20;;;;;;5094536;28;20360;-72
2023/08/07 05:40:46;;;;;;;;;;;19.70;88.10;;;;;;5094725;28;20274;-72
2023/08/07 05:43:12;;;;;;;;;;;19.70;88.10;;;;;;5094929;28;19915;-72
2023/08/07 05:45:38;;;;;;;;;;;19.60;88.10;;;;;;5094165;28;19920;-72
2023/08/07 05:48:03;;;;;;;;;;;19.60;88.10;;;;;;5094386;28;19915;-72
2023/08/07 05:50:29;;;;;;;;;;;19.60;88.10;;;;;;5094295;28;19908;-72
2023/08/07 05:52:54;;;;;;;;;;;19.60;88.10;;;;;;5094168;28;19914;-72
2023/08/07 05:55:20;;;;;;;;;;;19.60;88.10;;;;;;5094660;28;19912;-72
2023/08/07 05:57:45;;;;;;;;;;;19.70;88.20;;;;;;5094243;28;20269;-72
2023/08/07 06:00:15;;;;;;;;;;;19.60;88.10;;;;;;5094333;28;19912;-72
2023/08/07 06:02:41;;;;;;;;;;;19.70;88.20;;;;;;5094255;28;19942;-72
2023/08/07 06:05:07;;;;;;;;;;;19.60;88.10;;;;;;5094088;28;19912;-72
2023/08/07 06:07:33;;;;;;;;;;;19.70;88.20;;;;;;5094188;28;20354;-72
2023/08/07 06:09:58;;;;;;;;;;;19.60;88.10;;;;;;5094183;28;19908;-72
2023/08/07 06:12:24;;;;;;;;;;;19.60;88.20;;;;;;5094324;28;20285;-72
2023/08/07 06:14:49;;;;;;;;;;;19.60;88.10;;;;;;5093927;28;19919;-72
2023/08/07 06:17:14;;;;;;;;;;;19.60;88.20;;;;;;5094333;28;19916;-72
2023/08/07 06:19:40;;;;;;;;;;;19.60;88.20;;;;;;5093913;28;19908;-72
2023/08/07 06:22:05;;;;;;;;;;;19.60;88.20;;;;;;5093929;28;19931;-72
2023/08/07 06:24:31;;;;;;;;;;;19.60;88.20;;;;;;5093912;28;20477;-72
2023/08/07 06:26:56;;;;;;;;;;;19.60;88.20;;;;;;5093819;28;19961;-72
2023/08/07 06:29:22;;;;;;;;;;;19.60;88.10;;;;;;5093710;28;19908;-72
2023/08/07 06:31:47;;;;;;;;;;;19.60;88.20;;;;;;5093962;28;20251;-72
2023/08/07 06:34:13;;;;;;;;;;;19.60;88.20;;;;;;5093911;28;19946;-73
2023/08/07 06:36:39;;;;;;;;;;;19.60;88.20;;;;;;5096979;28;19999;-72
2023/08/07 06:39:04;;;;;;;;;;;19.60;88.20;;;;;;5097965;28;19908;-72
2023/08/07 06:41:30;;;;;;;;;;;19.60;88.20;;;;;;5098184;28;19969;-72
2023/08/07 06:43:56;;;;;;;;;;;19.60;88.20;;;;;;5098119;28;19908;-72
2023/08/07 06:46:26;;;;;;;;;;;19.60;88.30;;;;;;5097987;28;20047;-72
2023/08/07 06:48:52;;;;;;;;;;;19.60;88.20;;;;;;5097853;28;19912;-72
2023/08/07 06:51:17;;;;;;;;;;;19.60;88.20;;;;;;5097910;28;19908;-72
2023/08/07 06:53:43;;;;;;;;;;;19.60;88.20;;;;;;5097836;28;19912;-72
2023/08/07 06:56:08;;;;;;;;;;;19.50;88.20;;;;;;5097862;28;19912;-72
2023/08/07 06:58:33;;;;;;;;;;;19.60;88.20;;;;;;5097667;28;19912;-72
2023/08/07 07:00:59;;;;;;;;;;;19.50;88.10;;;;;;5097682;28;19908;-72
2023/08/07 07:03:24;;;;;;;;;;;19.50;88.20;;;;;;5097587;28;20497;-72
2023/08/07 07:05:50;;;;;;;;;;;19.50;88.10;;;;;;5097494;28;19908;-72
2023/08/07 07:08:16;;;;;;;;;;;19.50;88.10;;;;;;5097253;28;19915;-72
2023/08/07 07:10:41;;;;;;;;;;;19.50;88.10;;;;;;5097356;28;19912;-72
2023/08/07 07:13:09;;;;;;;;;;;19.60;88.20;;;;;;5096492;28;19916;-73
2023/08/07 07:15:35;;;;;;;;;;;19.50;88.10;;;;;;5097509;28;19912;-72
2023/08/07 07:18:01;;;;;;;;;;;19.50;88.10;;;;;;5097128;28;20483;-72
2023/08/07 07:20:26;;;;;;;;;;;19.50;88.10;;;;;;5095870;28;19957;-72
2023/08/07 07:22:52;;;;;;;;;;;19.50;88.10;;;;;;5097268;28;19917;-72
2023/08/07 07:25:17;;;;;;;;;;;19.50;88.10;;;;;;5097236;28;19908;-72
2023/08/07 07:27:43;;;;;;;;;;;19.50;88.10;;;;;;5097413;28;19908;-72
2023/08/07 07:30:09;;;;;;;;;;;19.50;88.10;;;;;;5096856;28;19908;-72
2023/08/07 07:32:34;;;;;;;;;;;19.50;88.10;;;;;;5096862;28;19915;-72
2023/08/07 07:35:00;;;;;;;;;;;19.50;88.00;;;;;;5095861;28;20010;-72
2023/08/07 07:37:25;;;;;;;;;;;19.50;88.00;;;;;;5097041;28;20003;-72
2023/08/07 07:39:51;;;;;;;;;;;19.50;88.00;;;;;;5096665;28;19919;-72
2023/08/07 07:42:16;;;;;;;;;;;19.50;88.00;;;;;;5096797;28;19957;-72
2023/08/07 07:44:42;;;;;;;;;;;19.50;88.00;;;;;;5096467;28;19920;-71
2023/08/07 07:47:08;;;;;;;;;;;19.50;88.00;;;;;;5096534;28;20024;-71
2023/08/07 07:49:33;;;;;;;;;;;19.50;88.00;;;;;;5096855;28;20354;-72
2023/08/07 07:51:59;;;;;;;;;;;19.50;87.90;;;;;;5096605;28;19908;-72
2023/08/07 07:54:24;;;;;;;;;;;19.50;87.90;;;;;;5096668;28;19963;-71
2023/08/07 07:56:50;;;;;;;;;;;19.50;87.90;;;;;;5096590;28;19920;-72
2023/08/07 07:59:16;;;;;;;;;;;19.50;87.90;;;;;;5096592;28;19915;-71
2023/08/07 08:01:41;;;;;;;;;;;19.50;87.90;;;;;;5096737;28;19908;-71
2023/08/07 08:04:07;;;;;;;;;;;19.50;87.80;;;;;;5096363;28;19951;-70
2023/08/07 08:06:32;;;;;;;;;;;19.50;87.80;;;;;;5096506;28;19995;-71
2023/08/07 08:08:59;;;;;;;;;;;19.50;87.80;;;;;;5096179;28;19915;-71
2023/08/07 08:11:24;;;;;;;;;;;19.50;87.80;;;;;;5096118;28;20010;-71
2023/08/07 08:13:50;;;;;;;;;;;19.50;87.80;;;;;;5095073;28;20042;-71
2023/08/07 08:16:15;;;;;;;;;;;19.50;87.80;;;;;;5096655;28;20351;-71
2023/08/07 08:18:41;;;;;;;;;;;19.50;87.80;;;;;;5095973;28;20283;-71
2023/08/07 08:21:06;;;;;;;;;;;19.50;87.80;;;;;;5095855;28;20015;-71
2023/08/07 08:23:32;;;;;;;;;;;19.50;87.80;;;;;;5096360;28;20246;-71
2023/08/07 08:25:57;;;;;;;;;;;19.50;87.70;;;;;;5095931;28;20351;-71
2023/08/07 08:28:23;;;;;;;;;;;19.50;87.70;;;;;;5094642;28;19908;-71
2023/08/07 08:30:48;;;;;;;;;;;19.50;87.70;;;;;;5095697;28;19916;-71
2023/08/07 08:33:14;;;;;;;;;;;19.40;87.70;;;;;;5095910;28;19995;-71
2023/08/07 08:35:39;;;;;;;;;;;19.50;87.70;;;;;;5095901;28;20120;-71
2023/08/07 08:38:05;;;;;;;;;;;19.40;87.70;;;;;;5095867;28;19908;-71
2023/08/07 08:40:31;;;;;;;;;;;19.50;87.70;;;;;;5095805;28;20049;-71
2023/08/07 08:43:00;;;;;;;;;;;19.50;87.70;;;;;;5095637;28;19916;-72
2023/08/07 08:45:26;;;;;;;;;;;19.40;87.70;;;;;;5095646;28;20007;-72
2023/08/07 08:47:54;;;;;;;;;;;19.50;87.80;;;;;;5095878;28;20383;-72
2023/08/07 08:50:20;;;;;;;;;;;19.40;87.70;;;;;;5095451;28;19939;-71
2023/08/07 08:52:46;;;;;;;;;;;19.50;87.80;;;;;;5095559;28;20372;-72
2023/08/07 08:55:12;;;;;;;;;;;19.40;87.70;;;;;;5095319;28;20026;-72
2023/08/07 08:57:39;;;;;;;;;;;19.40;87.70;;;;;;5094971;28;19913;-66
2023/08/07 09:00:13;;;;;;;;;;;19.40;87.70;;;;;;5095148;28;19909;-71
2023/08/07 09:02:38;;;;;;;;;;;19.40;87.70;;;;;;5095106;28;19908;-71
2023/08/07 09:05:04;;;;;;;;;;;19.50;87.80;;;;;;5095246;28;19908;-72
2023/08/07 09:07:30;;;;;;;;;;;19.50;87.80;;;;;;5094946;28;20329;-71
2023/08/07 09:09:56;;;;;;;;;;;19.50;87.80;;;;;;5095387;28;19921;-71
2023/08/07 09:12:26;;;;;;;;;;;19.40;87.70;;;;;;5095240;28;19909;-71
2023/08/07 09:14:55;;;;;;;;;;;19.50;87.80;;;;;;5095029;28;19961;-71
2023/08/07 09:17:23;;;;;;;;;;;19.40;87.70;;;;;;5094861;28;19916;-71
2023/08/07 09:19:48;;;;;;;;;;;19.50;87.70;;;;;;5094992;28;19934;-71
2023/08/07 09:22:14;;;;;;;;;;;19.40;87.70;;;;;;5094744;28;19908;-71
2023/08/07 09:24:40;;;;;;;;;;;19.40;88.20;;;;;;5094360;28;19908;-70
2023/08/07 09:27:07;;;;;;;;;;;19.50;87.80;;;;;;5094914;28;20429;-71
2023/08/07 09:29:32;;;;;;;;;;;19.50;87.80;;;;;;5094816;28;19952;-71
2023/08/07 09:32:05;;;;;;;;;;;19.40;87.70;;;;;;5094603;28;19961;-71
2023/08/07 09:34:31;;;;;;;;;;;19.50;87.80;;;;;;5094366;28;19916;-71
2023/08/07 09:36:56;;;;;;;;;;;19.40;87.70;;;;;;5094762;28;19920;-71
2023/08/07 09:39:24;;;;;;;;;;;19.40;87.70;;;;;;5094387;28;19962;-71
2023/08/07 09:41:51;;;;;;;;;;;19.40;87.70;;;;;;5094794;28;19912;-71
2023/08/07 09:44:16;;;;;;;;;;;19.40;87.80;;;;;;5094476;28;19908;-71
2023/08/07 09:46:42;;;;;;;;;;;19.40;87.80;;;;;;5094313;28;20377;-71
2023/08/07 09:49:08;;;;;;;;;;;19.40;87.80;;;;;;5094240;28;19965;-72
2023/08/07 09:51:43;;;;;;;;;;;19.40;87.90;;;;;;5094460;28;19916;-71
2023/08/07 09:54:08;;;;;;;;;;;19.40;87.90;;;;;;5094351;28;19982;-71
2023/08/07 09:56:35;;;;;;;;;;;19.40;87.90;;;;;;5094304;28;19955;-71
2023/08/07 09:59:00;;;;;;;;;;;19.40;87.90;;;;;;5094323;28;20262;-71
2023/08/07 10:01:25;;;;;;;;;;;19.40;87.90;;;;;;5094007;28;19931;-72
2023/08/07 10:03:51;;;;;;;;;;;19.40;87.90;;;;;;5094435;28;19912;-72
2023/08/07 10:06:18;;;;;;;;;;;19.40;87.90;;;;;;5093751;28;19915;-72
2023/08/07 10:08:45;;;;;;;;;;;19.40;87.90;;;;;;5094115;28;19908;-71
2023/08/07 10:11:11;;;;;;;;;;;19.40;87.80;;;;;;5093839;28;20315;-70
2023/08/07 10:13:37;;;;;;;;;;;19.40;87.80;;;;;;5093722;28;19912;-73
2023/08/07 10:16:03;;;;;;;;;;;19.40;87.80;;;;;;5094014;28;19934;-72
2023/08/07 10:18:28;;;;;;;;;;;19.40;87.80;;;;;;5094102;28;20421;-72
2023/08/07 10:20:55;;;;;;;;;;;19.40;87.80;;;;;;5093981;28;19914;-73
2023/08/07 10:23:20;;;;;;;;;;;19.40;87.80;;;;;;5093660;28;19909;-72
2023/08/07 10:25:47;;;;;;;;;;;19.40;87.70;;;;;;5093590;28;20018;-71
2023/08/07 10:28:15;;;;;;;;;;;19.40;87.70;;;;;;5093805;28;19909;-71
2023/08/07 10:30:41;;;;;;;;;;;19.40;87.70;;;;;;5094245;28;19908;-71
2023/08/07 10:33:07;;;;;;;;;;;19.40;87.70;;;;;;5093663;28;19931;-71
2023/08/07 10:35:33;;;;;;;;;;;19.40;87.70;;;;;;5093688;28;20263;-71
2023/08/07 10:38:06;;;;;;;;;;;19.40;87.70;;;;;;5093558;28;19916;-71
2023/08/07 10:40:32;;;;;;;;;;;19.40;87.70;;;;;;5093928;28;19923;-72
2023/08/07 10:42:58;;;;;;;;;;;19.40;87.70;;;;;;5094214;28;19909;-71
2023/08/07 10:45:24;;;;;;;;;;;19.40;87.70;;;;;;5093623;28;19920;-71
2023/08/07 10:48:16;;;;;;;;;;;19.40;87.80;;;;;;5094109;28;20298;-71
2023/08/07 10:50:53;;;;;;;;;;;19.40;87.80;;;;;;5092479;28;19912;-72
2023/08/07 10:53:20;;;;;;;;;;;19.40;87.70;;;;;;5093633;28;19914;-72
2023/08/07 10:55:46;;;;;;;;;;;19.40;87.70;;;;;;5093821;28;19998;-73
2023/08/07 10:58:25;;;;;;;;;;;19.40;87.70;;;;;;5093701;28;19951;-73
2023/08/07 11:00:51;;;;;;;;;;;19.40;87.70;;;;;;5093430;28;19939;-75
2023/08/07 11:03:25;;;;;;;;;;;19.40;87.70;;;;;;5093688;28;20392;-72
2023/08/07 11:05:51;;;;;;;;;;;19.40;88.30;;;;;;5093695;28;19912;-71
2023/08/07 11:08:21;;;;;;;;;;;19.40;87.70;;;;;;5093369;28;19908;-71
2023/08/07 11:10:46;;;;;;;;;;;19.40;87.80;;;;;;5093400;28;19934;-71
2023/08/07 11:13:12;;;;;;;;;;;19.40;87.80;;;;;;5093564;28;19909;-71
2023/08/07 11:15:37;;;;;;;;;;;19.40;87.80;;;;;;5093164;28;19962;-73
2023/08/07 11:18:03;;;;;;;;;;;19.40;87.80;;;;;;5093403;28;19961;-74
2023/08/07 11:20:28;;;;;;;;;;;19.40;87.80;;;;;;5093319;28;20283;-73
2023/08/07 11:22:55;;;;;;;;;;;19.40;87.80;;;;;;5096705;28;19916;-72
2023/08/07 11:25:20;;;;;;;;;;;19.40;87.80;;;;;;5096988;28;20390;-71
2023/08/07 11:27:46;;;;;;;;;;;19.40;88.30;;;;;;5096983;28;19912;-71
2023/08/07 11:30:11;;;;;;;;;;;19.40;87.90;;;;;;5096832;28;19909;-70
2023/08/07 11:32:37;;;;;;;;;;;19.40;87.90;;;;;;5097486;28;20259;-72
2023/08/07 11:35:04;;;;;;;;;;;19.40;87.90;;;;;;5097029;28;19912;-73
2023/08/07 11:37:30;;;;;;;;;;;19.40;87.80;;;;;;5096911;28;19913;-72
2023/08/07 11:40:00;;;;;;;;;;;19.40;87.80;;;;;;5095803;28;20007;-74
2023/08/07 11:42:27;;;;;;;;;;;19.40;87.90;;;;;;5096688;28;19908;-74
2023/08/07 11:44:52;;;;;;;;;;;19.40;87.90;;;;;;5096499;28;19973;-74
2023/08/07 11:47:18;;;;;;;;;;;19.40;87.90;;;;;;5096753;28;20347;-72
2023/08/07 11:49:44;;;;;;;;;;;19.40;87.90;;;;;;5096505;28;19908;-72
2023/08/07 11:52:09;;;;;;;;;;;19.40;87.90;;;;;;5096692;28;19912;-72
2023/08/07 11:54:35;;;;;;;;;;;19.40;87.90;;;;;;5096651;28;19992;-73
2023/08/07 11:57:00;;;;;;;;;;;19.40;87.90;;;;;;5096550;28;20020;-73
2023/08/07 11:59:26;;;;;;;;;;;19.40;87.90;;;;;;5096197;28;19908;-74
2023/08/07 12:01:51;;;;;;;;;;;19.40;87.90;;;;;;5096066;28;19919;-73
2023/08/07 12:04:17;;;;;;;;;;;19.40;87.90;;;;;;5096364;28;19908;-73
2023/08/07 12:06:55;;;;;;;;;;;19.40;87.90;;;;;;5096595;28;19912;-72
2023/08/07 12:09:20;;;;;;;;;;;19.40;87.90;;;;;;5096534;28;19908;-75
2023/08/07 12:11:46;;;;;;;;;;;19.40;87.90;;;;;;5096062;28;19908;-73
2023/08/07 12:14:17;;;;;;;;;;;19.40;87.90;;;;;;5096321;28;19919;-69
2023/08/07 12:16:45;;;;;;;;;;;19.40;87.90;;;;;;5096049;28;20386;-72
2023/08/07 12:19:11;;;;;;;;;;;19.40;87.90;;;;;;5096261;28;19912;-72
2023/08/07 12:21:39;;;;;;;;;;;19.40;87.90;;;;;;5095904;28;19920;-72
2023/08/07 12:24:06;;;;;;;;;;;19.40;87.90;;;;;;5095892;28;19908;-72
2023/08/07 12:26:31;;;;;;;;;;;19.40;88.00;;;;;;5095912;28;19927;-73
2023/08/07 12:28:57;;;;;;;;;;;19.40;88.00;;;;;;5095995;28;19909;-74
2023/08/07 12:31:22;;;;;;;;;;;19.40;88.00;;;;;;5095875;28;20252;-73
2023/08/07 12:33:48;;;;;;;;;;;19.40;88.00;;;;;;5095057;28;20014;-73
2023/08/07 12:36:14;;;;;;;;;;;19.40;88.00;;;;;;5095653;28;19958;-72
2023/08/07 12:38:40;;;;;;;;;;;19.40;88.00;;;;;;5095873;28;20025;-73
2023/08/07 12:41:06;;;;;;;;;;;19.40;88.00;;;;;;5095718;28;19930;-74
2023/08/07 12:43:31;;;;;;;;;;;19.40;88.00;;;;;;5095588;28;20355;-73
2023/08/07 12:45:56;;;;;;;;;;;19.40;88.00;;;;;;5095504;28;19927;-73
2023/08/07 12:48:22;;;;;;;;;;;19.40;88.00;;;;;;5095174;28;19919;-74
2023/08/07 12:50:47;;;;;;;;;;;19.40;88.00;;;;;;5095620;28;19915;-73
2023/08/07 12:53:13;;;;;;;;;;;19.40;88.10;;;;;;5095573;28;20363;-71
2023/08/07 12:55:38;;;;;;;;;;;19.40;88.00;;;;;;5095514;28;19918;-72
2023/08/07 12:58:06;;;;;;;;;;;19.40;88.00;;;;;;5093340;28;21472;-72
2023/08/07 13:00:31;;;;;;;;;;;19.40;88.00;;;;;;5095041;28;19970;-72
2023/08/07 13:02:58;;;;;;;;;;;19.40;88.00;;;;;;5095064;28;19909;-74
2023/08/07 13:05:24;;;;;;;;;;;19.40;88.00;;;;;;5095557;28;19908;-71
2023/08/07 13:07:50;;;;;;;;;;;19.40;88.00;;;;;;5095178;28;19907;-70
2023/08/07 13:10:16;;;;;;;;;;;19.40;88.00;;;;;;5095043;28;19912;-72
2023/08/07 13:12:42;;;;;;;;;;;19.40;88.00;;;;;;5095222;28;19912;-73
2023/08/07 13:15:09;;;;;;;;;;;19.40;88.00;;;;;;5095012;28;19912;-74
2023/08/07 13:17:35;;;;;;;;;;;19.40;88.00;;;;;;5095161;28;20252;-73
2023/08/07 13:20:02;;;;;;;;;;;19.40;88.00;;;;;;5095038;28;19908;-73
2023/08/07 13:22:28;;;;;;;;;;;19.40;87.90;;;;;;5094980;28;19915;-73
2023/08/07 13:24:54;;;;;;;;;;;19.40;88.00;;;;;;5094951;28;19908;-73
2023/08/07 13:27:19;;;;;;;;;;;19.40;88.00;;;;;;5094504;28;19915;-73
2023/08/07 13:29:45;;;;;;;;;;;19.40;88.00;;;;;;5094515;28;19954;-72
2023/08/07 13:32:10;;;;;;;;;;;19.40;87.90;;;;;;5094989;28;19916;-73
2023/08/07 13:34:36;;;;;;;;;;;19.40;88.00;;;;;;5094755;28;20006;-73
2023/08/07 13:37:02;;;;;;;;;;;19.40;87.90;;;;;;5094446;28;19918;-73
2023/08/07 13:39:28;;;;;;;;;;;19.40;88.00;;;;;;5094742;28;20339;-73
2023/08/07 13:41:53;;;;;;;;;;;19.30;87.90;;;;;;5094652;28;19929;-73
2023/08/07 13:44:19;;;;;;;;;;;19.40;88.00;;;;;;5093981;28;19912;-73
2023/08/07 13:46:45;;;;;;;;;;;19.40;88.00;;;;;;5094344;28;20012;-73
2023/08/07 13:49:10;;;;;;;;;;;19.30;87.90;;;;;;5094511;28;19912;-73
2023/08/07 13:51:36;;;;;;;;;;;19.40;88.00;;;;;;5094523;28;20240;-73
2023/08/07 13:54:02;;;;;;;;;;;19.40;88.00;;;;;;5094214;28;19988;-74
2023/08/07 13:56:27;;;;;;;;;;;19.40;88.00;;;;;;5094468;28;20354;-73
2023/08/07 13:58:54;;;;;;;;;;;19.40;88.00;;;;;;5094409;28;20269;-73
2023/08/07 14:01:20;;;;;;;;;;;19.40;87.90;;;;;;5094175;28;19908;-72
2023/08/07 14:03:45;;;;;;;;;;;19.40;87.90;;;;;;5093900;28;19915;-73
2023/08/07 14:06:11;;;;;;;;;;;19.40;87.90;;;;;;5093496;28;19919;-74
2023/08/07 14:08:36;;;;;;;;;;;19.30;87.90;;;;;;5093966;28;20022;-73